createdAt,value
2018-01-14T00:00:40.770Z,19.62
2018-01-14T00:03:10.863Z,18.35
2018-01-14T00:05:42.070Z,21.17
2018-01-14T00:08:12.814Z,21.05
2018-01-14T00:10:42.630Z,19.15
2018-01-14T00:13:17.133Z,20.40
2018-01-14T00:15:50.326Z,22.52
2018-01-14T00:18:20.150Z,19.95
2018-01-14T00:20:52.374Z,19.20
2018-01-14T00:23:32.011Z,19.40
2018-01-14T00:26:02.102Z,20.73
2018-01-14T00:28:30.178Z,19.23
2018-01-14T00:30:58.210Z,20.35
2018-01-14T00:33:32.082Z,21.02
2018-01-14T00:36:19.886Z,19.30
2018-01-14T00:38:49.658Z,16.58
2018-01-14T00:41:25.142Z,18.08
2018-01-14T00:43:53.934Z,19.23
2018-01-14T00:46:23.010Z,17.17
2018-01-14T00:49:17.822Z,18.37
2018-01-14T00:51:45.998Z,18.90
2018-01-14T00:54:14.154Z,18.05
2018-01-14T00:56:42.926Z,18.20
2018-01-14T00:59:10.974Z,19.10
2018-01-14T01:01:40.762Z,17.48
2018-01-14T01:04:12.614Z,17.95
2018-01-14T01:06:51.966Z,17.23
2018-01-14T01:09:22.030Z,16.95
2018-01-14T01:11:50.983Z,18.00
2018-01-14T01:14:29.494Z,17.00
2018-01-14T01:16:58.494Z,18.55
2018-01-14T01:19:29.251Z,18.42
2018-01-14T01:21:57.286Z,15.88
2018-01-14T01:24:26.318Z,17.42
2018-01-14T01:26:56.126Z,17.70
2018-01-14T01:29:25.086Z,16.90
2018-01-14T01:31:58.974Z,15.13
2018-01-14T01:34:31.315Z,16.52
2018-01-14T01:37:00.363Z,13.62
2018-01-14T01:39:31.106Z,15.50
2018-01-14T01:41:59.951Z,16.15
2018-01-14T01:44:29.994Z,15.55
2018-01-14T01:47:03.162Z,14.98
2018-01-14T01:49:36.938Z,15.05
2018-01-14T01:52:05.918Z,14.80
2018-01-14T01:54:33.986Z,13.50
2018-01-14T01:57:02.938Z,15.88
2018-01-14T01:59:30.990Z,15.27
2018-01-14T02:02:02.142Z,13.20
2018-01-14T02:04:31.142Z,15.15
2018-01-14T02:06:59.173Z,14.10
2018-01-14T02:09:35.351Z,14.85
2018-01-14T02:12:04.357Z,14.20
2018-01-14T02:14:33.373Z,14.30
2018-01-14T02:17:07.166Z,14.45
2018-01-14T02:19:36.157Z,13.35
2018-01-14T02:22:04.173Z,15.27
2018-01-14T02:24:36.913Z,14.98
2018-01-14T02:27:04.949Z,14.48
2018-01-14T02:29:37.493Z,13.90
2018-01-14T02:32:07.249Z,16.20
2018-01-14T02:34:35.278Z,14.85
2018-01-14T02:37:06.997Z,13.82
2018-01-14T02:39:35.981Z,14.63
2018-01-14T02:42:04.993Z,13.32
2018-01-14T02:44:33.777Z,13.32
2018-01-14T02:47:03.629Z,13.30
2018-01-14T02:49:33.405Z,13.98
2018-01-14T02:52:03.185Z,13.38
2018-01-14T02:54:33.197Z,12.98
2018-01-14T02:57:01.237Z,14.90
2018-01-14T02:59:35.521Z,14.05
2018-01-14T03:02:05.313Z,13.62
2018-01-14T03:04:34.333Z,14.10
2018-01-14T03:07:06.197Z,13.85
2018-01-14T03:09:34.265Z,13.45
2018-01-14T03:12:02.281Z,14.15
2018-01-14T03:14:36.088Z,13.20
2018-01-14T03:17:20.581Z,14.32
2018-01-14T03:20:08.209Z,13.52
2018-01-14T03:22:42.704Z,13.75
2018-01-14T03:25:28.265Z,13.00
2018-01-14T03:28:15.845Z,13.55
2018-01-14T03:30:44.641Z,13.65
2018-01-14T03:33:18.705Z,13.13
2018-01-14T03:35:49.749Z,13.50
2018-01-14T03:38:36.989Z,12.85
2018-01-14T03:41:09.345Z,14.20
2018-01-14T03:43:39.367Z,12.95
2018-01-14T03:46:12.360Z,13.93
2018-01-14T03:48:50.124Z,12.88
2018-01-14T03:51:18.137Z,12.70
2018-01-14T03:53:46.940Z,13.00
2018-01-14T03:56:15.893Z,13.25
2018-01-14T03:58:43.940Z,12.30
2018-01-14T04:04:13.956Z,13.05
2018-01-14T04:09:37.868Z,12.00
2018-01-14T04:12:08.932Z,12.05
2018-01-14T04:14:42.629Z,12.52
2018-01-14T04:17:10.649Z,12.75
2018-01-14T04:19:43.212Z,12.48
2018-01-14T04:22:13.237Z,12.15
2018-01-14T04:27:43.296Z,11.65
2018-01-14T04:30:12.241Z,12.05
2018-01-14T04:32:41.971Z,12.37
2018-01-14T04:35:10.340Z,12.00
2018-01-14T04:37:40.412Z,10.45
2018-01-14T04:43:17.276Z,11.38
2018-01-14T04:45:46.228Z,10.55
2018-01-14T04:48:21.336Z,12.13
2018-01-14T04:50:50.252Z,10.65
2018-01-14T04:53:24.857Z,10.45
2018-01-14T04:55:55.545Z,11.73
2018-01-14T05:01:22.156Z,12.18
2018-01-14T05:03:50.224Z,12.55
2018-01-14T05:06:22.856Z,11.52
2018-01-14T05:08:52.706Z,11.70
2018-01-14T05:11:20.912Z,12.13
2018-01-14T05:13:52.268Z,11.75
2018-01-14T05:16:27.896Z,9.57
2018-01-14T05:19:01.424Z,11.02
2018-01-14T05:21:35.384Z,10.65
2018-01-14T05:24:15.136Z,11.68
2018-01-14T05:26:57.592Z,11.40
2018-01-14T05:29:38.389Z,11.15
2018-01-14T05:32:06.412Z,11.90
2018-01-14T05:34:37.164Z,12.18
2018-01-14T05:37:07.132Z,11.23
2018-01-14T05:39:40.284Z,10.65
2018-01-14T05:42:09.324Z,12.05
2018-01-14T05:44:40.984Z,11.27
2018-01-14T05:47:14.688Z,10.65
2018-01-14T05:49:42.730Z,11.90
2018-01-14T05:52:16.392Z,12.48
2018-01-14T05:54:45.344Z,12.40
2018-01-14T05:57:13.356Z,12.85
2018-01-14T05:59:41.372Z,12.23
2018-01-14T06:02:12.732Z,11.60
2018-01-14T06:05:00.540Z,11.95
2018-01-14T06:07:30.612Z,12.20
2018-01-14T06:10:04.524Z,10.45
2018-01-14T06:12:33.357Z,12.80
2018-01-14T06:15:12.968Z,11.80
2018-01-14T06:17:48.940Z,11.32
2018-01-14T06:20:16.980Z,11.70
2018-01-14T06:22:48.516Z,13.35
2018-01-14T06:25:18.504Z,12.65
2018-01-14T06:27:50.252Z,12.05
2018-01-14T06:30:26.944Z,12.32
2018-01-14T06:32:55.972Z,12.73
2018-01-14T06:35:42.364Z,12.68
2018-01-14T06:38:10.396Z,12.43
2018-01-14T06:40:38.432Z,12.00
2018-01-14T06:43:12.184Z,12.10
2018-01-14T06:45:44.408Z,12.73
2018-01-14T06:48:14.356Z,11.35
2018-01-14T06:50:42.420Z,13.18
2018-01-14T06:53:10.491Z,12.73
2018-01-14T06:55:39.427Z,11.82
2018-01-14T06:58:24.227Z,13.13
2018-01-14T07:00:52.244Z,12.05
2018-01-14T07:03:22.075Z,11.98
2018-01-14T07:05:51.827Z,11.75
2018-01-14T07:08:19.887Z,12.90
2018-01-14T07:10:49.820Z,12.98
2018-01-14T07:13:20.880Z,14.52
2018-01-14T07:15:56.343Z,12.35
2018-01-14T07:18:24.419Z,11.98
2018-01-14T07:20:53.427Z,12.90
2018-01-14T07:23:25.145Z,12.18
2018-01-14T07:26:00.796Z,12.25
2018-01-14T07:28:31.597Z,11.30
2018-01-14T07:31:02.983Z,11.55
2018-01-14T07:33:34.724Z,13.27
2018-01-14T07:36:07.596Z,12.32
2018-01-14T07:38:36.583Z,12.80
2018-01-14T07:41:08.479Z,11.40
2018-01-14T07:43:37.287Z,10.90
2018-01-14T07:46:07.259Z,10.13
2018-01-14T07:48:39.563Z,12.88
2018-01-14T07:51:07.607Z,11.55
2018-01-14T07:53:36.603Z,11.60
2018-01-14T07:56:04.635Z,10.52
2018-01-14T07:58:33.303Z,10.85
2018-01-14T08:01:09.677Z,11.00
2018-01-14T08:03:37.723Z,11.95
2018-01-14T08:06:06.719Z,11.57
2018-01-14T08:08:36.667Z,10.45
2018-01-14T08:11:04.727Z,11.10
2018-01-14T08:13:36.211Z,11.27
2018-01-14T08:16:05.215Z,11.50
2018-01-14T08:18:37.915Z,10.93
2018-01-14T08:21:07.239Z,10.65
2018-01-14T08:23:35.515Z,10.85
2018-01-14T08:26:05.627Z,10.25
2018-01-14T08:28:33.775Z,9.85
2018-01-14T08:31:06.011Z,11.07
2018-01-14T08:33:38.771Z,9.52
2018-01-14T08:36:12.475Z,9.90
2018-01-14T08:38:50.307Z,10.10
2018-01-14T08:41:20.335Z,10.13
2018-01-14T08:43:49.139Z,11.48
2018-01-14T08:46:18.071Z,10.88
2018-01-14T08:48:49.853Z,10.32
2018-01-14T08:51:17.907Z,9.45
2018-01-14T08:53:49.687Z,10.15
2018-01-14T08:56:19.524Z,11.68
2018-01-14T08:58:48.380Z,10.13
2018-01-14T09:01:24.067Z,9.68
2018-01-14T09:03:52.107Z,9.02
2018-01-14T09:06:20.191Z,10.23
2018-01-14T09:08:52.320Z,10.02
2018-01-14T09:11:20.331Z,9.75
2018-01-14T09:13:49.178Z,8.52
2018-01-14T09:16:18.091Z,9.90
2018-01-14T09:21:43.979Z,9.40
2018-01-14T09:24:11.975Z,8.27
2018-01-14T09:26:44.655Z,8.70
2018-01-14T09:29:17.646Z,10.05
2018-01-14T09:31:45.671Z,9.90
2018-01-14T09:34:17.367Z,9.32
2018-01-14T09:36:45.403Z,9.43
2018-01-14T09:39:14.323Z,9.00
2018-01-14T09:41:49.131Z,9.73
2018-01-14T09:44:19.063Z,8.85
2018-01-14T09:46:48.063Z,8.98
2018-01-14T09:49:21.055Z,8.52
2018-01-14T09:51:49.067Z,9.50
2018-01-14T09:54:17.091Z,8.15
2018-01-14T09:56:45.091Z,9.57
2018-01-14T09:59:15.796Z,9.07
2018-01-14T10:01:43.803Z,9.75
2018-01-14T10:04:13.615Z,8.30
2018-01-14T10:06:42.570Z,9.07
2018-01-14T10:09:12.191Z,8.35
2018-01-14T10:11:41.182Z,10.77
2018-01-14T10:14:13.214Z,9.45
2018-01-14T10:16:41.263Z,9.13
2018-01-14T10:19:12.331Z,9.68
2018-01-14T10:21:41.345Z,9.07
2018-01-14T10:24:09.359Z,10.70
2018-01-14T10:26:40.883Z,10.18
2018-01-14T10:29:23.090Z,9.70
2018-01-14T10:31:52.766Z,10.95
2018-01-14T10:34:22.779Z,10.07
2018-01-14T10:36:54.158Z,10.35
2018-01-14T10:39:26.799Z,8.82
2018-01-14T10:41:55.806Z,10.15
2018-01-14T10:44:27.466Z,10.18
2018-01-14T10:46:55.478Z,9.23
2018-01-14T10:49:23.490Z,9.70
2018-01-14T10:51:59.550Z,9.50
2018-01-14T10:54:30.772Z,9.38
2018-01-14T10:56:58.803Z,9.50
2018-01-14T10:59:32.246Z,9.68
2018-01-14T11:02:00.319Z,9.50
2018-01-14T11:04:30.418Z,9.20
2018-01-14T11:06:58.467Z,10.55
2018-01-14T11:09:32.886Z,9.93
2018-01-14T11:12:00.954Z,8.60
2018-01-14T11:14:30.932Z,9.45
2018-01-14T11:16:59.902Z,10.25
2018-01-14T11:19:27.926Z,8.80
2018-01-14T11:21:56.698Z,10.40
2018-01-14T11:24:36.374Z,9.80
2018-01-14T11:27:04.417Z,9.15
2018-01-14T11:29:42.998Z,10.98
2018-01-14T11:32:11.082Z,9.40
2018-01-14T11:34:39.102Z,9.77
2018-01-14T11:37:14.102Z,10.65
2018-01-14T11:39:44.839Z,10.10
2018-01-14T11:42:18.234Z,9.50
2018-01-14T11:44:47.050Z,8.98
2018-01-14T11:47:17.022Z,8.80
2018-01-14T11:49:45.094Z,9.90
2018-01-14T11:52:16.466Z,8.48
2018-01-14T11:54:45.410Z,9.80
2018-01-14T11:57:13.474Z,9.07
2018-01-14T11:59:43.226Z,8.32
2018-01-14T12:02:12.003Z,8.52
2018-01-14T12:04:43.966Z,9.15
2018-01-14T12:07:13.734Z,8.23
2018-01-14T12:09:43.690Z,8.77
2018-01-14T12:12:14.410Z,8.50
2018-01-14T12:14:46.094Z,8.15
2018-01-14T12:17:15.099Z,9.27
2018-01-14T12:19:45.002Z,9.25
2018-01-14T12:22:14.685Z,7.43
2018-01-14T12:24:43.674Z,8.25
2018-01-14T12:27:16.246Z,9.05
2018-01-14T12:29:46.258Z,7.95
2018-01-14T12:32:17.450Z,7.30
2018-01-14T12:34:53.537Z,8.88
2018-01-14T12:37:23.546Z,7.70
2018-01-14T12:39:51.613Z,8.48
2018-01-14T12:42:21.557Z,11.10
2018-01-14T12:44:49.646Z,8.45
2018-01-14T12:47:19.702Z,8.40
2018-01-14T12:49:49.714Z,8.32
2018-01-14T12:52:18.650Z,8.43
2018-01-14T12:54:46.666Z,8.18
2018-01-14T12:57:15.497Z,8.90
2018-01-14T12:59:44.104Z,8.70
2018-01-14T13:02:12.925Z,7.85
2018-01-14T13:04:42.645Z,10.30
2018-01-14T13:07:10.717Z,12.07
2018-01-14T13:09:38.845Z,8.45
2018-01-14T13:12:07.861Z,9.45
2018-01-14T13:14:36.685Z,9.27
2018-01-14T13:17:08.905Z,8.70
2018-01-14T13:19:37.905Z,8.75
2018-01-14T13:22:06.921Z,10.57
2018-01-14T13:24:35.885Z,9.15
2018-01-14T13:27:14.089Z,8.90
2018-01-14T13:29:44.793Z,8.43
2018-01-14T13:32:18.275Z,9.00
2018-01-14T13:34:46.285Z,8.32
2018-01-14T13:37:15.313Z,8.88
2018-01-14T13:39:45.273Z,7.95
2018-01-14T13:42:13.321Z,8.52
2018-01-14T13:44:43.305Z,9.45
2018-01-14T13:47:14.121Z,8.77
2018-01-14T13:49:46.789Z,8.73
2018-01-14T13:52:14.833Z,7.57
2018-01-14T13:54:42.929Z,8.32
2018-01-14T13:57:11.969Z,7.75
2018-01-14T13:59:40.917Z,7.03
2018-01-14T14:02:08.925Z,7.22
2018-01-14T14:04:37.113Z,7.40
2018-01-14T14:07:07.077Z,7.75
2018-01-14T14:09:36.093Z,7.75
2018-01-14T14:12:06.793Z,8.10
2018-01-14T14:14:34.857Z,8.85
2018-01-14T14:17:02.885Z,7.15
2018-01-14T14:19:45.045Z,7.72
2018-01-14T14:22:13.969Z,7.07
2018-01-14T14:24:46.293Z,8.25
2018-01-14T14:27:15.261Z,7.20
2018-01-14T14:29:43.293Z,8.88
2018-01-14T14:32:15.989Z,7.45
2018-01-14T14:34:45.957Z,9.50
2018-01-14T14:37:14.989Z,7.43
2018-01-14T14:39:43.029Z,6.65
2018-01-14T14:42:12.089Z,7.55
2018-01-14T14:44:40.101Z,9.23
2018-01-14T14:47:08.961Z,7.93
2018-01-14T14:49:39.545Z,7.07
2018-01-14T14:52:07.665Z,6.97
2018-01-14T14:54:35.701Z,6.62
2018-01-14T14:57:14.857Z,7.47
2018-01-14T14:59:46.449Z,7.68
2018-01-14T15:02:15.272Z,7.85
2018-01-14T15:04:45.313Z,8.13
2018-01-14T15:07:13.345Z,7.07
2018-01-14T15:09:41.401Z,7.30
2018-01-14T15:12:10.176Z,7.10
2018-01-14T15:14:42.065Z,7.32
2018-01-14T15:17:10.153Z,6.90
2018-01-14T15:19:38.161Z,6.97
2018-01-14T15:22:10.309Z,6.87
2018-01-14T15:24:39.333Z,6.90
2018-01-14T15:27:11.267Z,6.80
2018-01-14T15:29:39.313Z,7.93
2018-01-14T15:32:07.317Z,8.07
2018-01-14T15:34:35.332Z,8.00
2018-01-14T15:37:03.352Z,8.13
2018-01-14T15:39:31.381Z,7.50
2018-01-14T15:42:06.119Z,7.62
2018-01-14T15:44:35.141Z,7.65
2018-01-14T15:47:03.158Z,7.50
2018-01-14T15:49:31.205Z,7.30
2018-01-14T15:52:00.081Z,8.60
2018-01-14T15:54:33.856Z,7.22
2018-01-14T15:57:02.877Z,9.50
2018-01-14T15:59:30.913Z,8.13
2018-01-14T16:01:59.817Z,10.07
2018-01-14T16:04:29.833Z,9.15
2018-01-14T16:06:57.841Z,9.00
2018-01-14T16:09:27.588Z,8.20
2018-01-14T16:11:55.658Z,8.25
2018-01-14T16:14:29.756Z,8.38
2018-01-14T16:16:57.789Z,9.38
2018-01-14T16:19:25.784Z,10.90
2018-01-14T16:21:54.685Z,9.02
2018-01-14T16:24:24.636Z,9.40
2018-01-14T16:26:52.713Z,9.88
2018-01-14T16:29:22.729Z,8.73
2018-01-14T16:31:53.961Z,9.73
2018-01-14T16:34:22.013Z,9.65
2018-01-14T16:36:51.958Z,9.48
2018-01-14T16:39:21.001Z,8.88
2018-01-14T16:41:50.969Z,12.35
2018-01-14T16:44:19.940Z,8.70
2018-01-14T16:46:56.145Z,8.07
2018-01-14T16:49:32.513Z,8.80
2018-01-14T16:52:03.321Z,8.85
2018-01-14T16:54:31.309Z,7.12
2018-01-14T16:57:00.097Z,9.07
2018-01-14T16:59:29.877Z,8.23
2018-01-14T17:02:01.037Z,8.25
2018-01-14T17:04:29.061Z,9.45
2018-01-14T17:06:58.037Z,16.40
2018-01-14T17:09:26.811Z,9.30
2018-01-14T17:11:55.748Z,9.00
2018-01-14T17:14:26.905Z,9.20
2018-01-14T17:16:54.932Z,9.45
2018-01-14T17:19:22.984Z,8.75
2018-01-14T17:22:04.196Z,7.90
2018-01-14T17:24:32.976Z,8.25
2018-01-14T17:27:08.656Z,13.68
2018-01-14T17:29:46.637Z,10.27
2018-01-14T17:32:15.336Z,10.05
2018-01-14T17:34:43.340Z,9.18
2018-01-14T17:37:11.353Z,9.43
2018-01-14T17:39:41.305Z,9.55
2018-01-14T17:42:09.693Z,10.70
2018-01-14T17:44:37.705Z,10.50
2018-01-14T17:47:07.664Z,10.10
2018-01-14T17:49:40.244Z,10.18
2018-01-14T17:55:07.716Z,9.15
2018-01-14T17:57:38.960Z,9.23
2018-01-14T18:00:07.948Z,9.77
2018-01-14T18:02:37.950Z,9.23
2018-01-14T18:05:07.868Z,10.93
2018-01-14T18:07:40.148Z,12.25
2018-01-14T18:10:08.169Z,12.20
2018-01-14T18:12:36.184Z,10.57
2018-01-14T18:15:06.200Z,10.27
2018-01-14T18:17:39.596Z,11.18
2018-01-14T18:20:07.616Z,9.38
2018-01-14T18:22:35.636Z,9.70
2018-01-14T18:25:09.644Z,10.10
2018-01-14T18:27:41.108Z,10.10
2018-01-14T18:30:15.208Z,10.55
2018-01-14T18:32:46.940Z,9.10
2018-01-14T18:35:15.328Z,9.57
2018-01-14T18:37:44.092Z,9.73
2018-01-14T18:40:12.940Z,9.38
2018-01-14T18:42:40.940Z,8.40
2018-01-14T18:45:10.844Z,9.10
2018-01-14T18:47:39.696Z,8.52
2018-01-14T18:50:07.680Z,12.07
2018-01-14T18:52:39.628Z,10.90
2018-01-14T18:55:07.652Z,10.35
2018-01-14T18:57:36.436Z,9.75
2018-01-14T19:00:05.380Z,8.48
2018-01-14T19:02:34.372Z,9.80
2018-01-14T19:05:03.392Z,11.00
2018-01-14T19:07:33.167Z,10.10
2018-01-14T19:10:05.134Z,11.07
2018-01-14T19:12:38.239Z,8.57
2018-01-14T19:15:06.251Z,9.48
2018-01-14T19:17:34.368Z,9.98
2018-01-14T19:20:04.428Z,11.77
2018-01-14T19:22:33.223Z,10.98
2018-01-14T19:25:01.292Z,10.95
2018-01-14T19:27:29.383Z,11.57
2018-01-14T19:30:03.907Z,9.95
2018-01-14T19:32:40.979Z,10.95
2018-01-14T19:35:18.151Z,10.75
2018-01-14T19:37:51.679Z,11.98
2018-01-14T19:40:24.336Z,9.82
2018-01-14T19:42:52.423Z,16.12
2018-01-14T19:45:24.791Z,9.88
2018-01-14T19:47:57.891Z,9.70
2018-01-14T19:50:33.679Z,10.57
2018-01-14T19:53:04.435Z,10.18
2018-01-14T19:55:37.355Z,11.82
2018-01-14T19:58:20.707Z,10.30
2018-01-14T20:00:48.779Z,10.82
2018-01-14T20:03:18.719Z,13.98
2018-01-14T20:05:48.467Z,12.98
2018-01-14T20:08:16.509Z,12.23
2018-01-14T20:10:46.463Z,11.32
2018-01-14T20:13:15.583Z,11.30
2018-01-14T20:15:43.755Z,10.90
2018-01-14T20:18:16.471Z,11.30
2018-01-14T20:20:45.276Z,10.60
2018-01-14T20:23:14.339Z,11.80
2018-01-14T20:25:47.167Z,12.07
2018-01-14T20:28:15.243Z,10.10
2018-01-14T20:30:46.487Z,10.05
2018-01-14T20:33:14.583Z,12.18
2018-01-14T20:35:46.491Z,11.85
2018-01-14T20:38:21.575Z,9.65
2018-01-14T20:41:01.635Z,9.95
2018-01-14T20:43:41.047Z,10.30
2018-01-14T20:46:19.975Z,10.43
2018-01-14T20:48:49.923Z,10.65
2018-01-14T20:51:23.127Z,9.73
2018-01-14T20:54:08.359Z,9.98
2018-01-14T20:56:41.774Z,10.80
2018-01-14T20:59:11.843Z,13.48
2018-01-14T21:01:41.895Z,12.35
2018-01-14T21:04:15.578Z,15.43
2018-01-14T21:06:48.503Z,17.55
2018-01-14T21:09:18.563Z,18.35
2018-01-14T21:11:48.491Z,20.10
2018-01-14T21:14:21.915Z,20.37
2018-01-14T21:16:49.954Z,18.98
2018-01-14T21:19:21.710Z,14.68
2018-01-14T21:21:49.762Z,12.90
2018-01-14T21:24:35.622Z,12.25
2018-01-14T21:27:13.719Z,11.65
2018-01-14T21:29:48.691Z,11.88
2018-01-14T21:32:16.754Z,12.00
2018-01-14T21:34:49.358Z,11.23
2018-01-14T21:37:19.395Z,12.35
2018-01-14T21:39:53.918Z,12.75
2018-01-14T21:42:21.965Z,12.18
2018-01-14T21:44:50.046Z,11.68
2018-01-14T21:47:19.162Z,12.25
2018-01-14T21:49:48.206Z,13.57
2018-01-14T21:52:18.250Z,14.73
2018-01-14T21:54:46.279Z,13.57
2018-01-14T21:57:22.382Z,16.58
2018-01-14T21:59:50.455Z,16.42
2018-01-14T22:02:18.499Z,15.98
2018-01-14T22:04:47.458Z,13.23
2018-01-14T22:07:17.421Z,12.15
2018-01-14T22:09:46.414Z,12.45
2018-01-14T22:12:14.462Z,11.93
2018-01-14T22:14:43.278Z,10.75
2018-01-14T22:17:13.270Z,12.32
2018-01-14T22:19:48.198Z,12.37
2018-01-14T22:22:21.302Z,11.80
2018-01-14T22:24:51.246Z,13.45
2018-01-14T22:27:25.011Z,13.80
2018-01-14T22:29:55.030Z,11.43
2018-01-14T22:32:47.707Z,11.40
2018-01-14T22:35:17.766Z,9.90
2018-01-14T22:37:47.630Z,10.90
2018-01-14T22:40:19.962Z,11.30
2018-01-14T22:46:00.778Z,12.85
2018-01-14T22:48:30.782Z,11.27
2018-01-14T22:50:59.746Z,11.80
2018-01-14T22:53:28.522Z,11.15
2018-01-14T22:55:59.238Z,12.88
2018-01-14T22:58:27.266Z,11.38
2018-01-14T23:01:01.390Z,12.00
2018-01-14T23:03:30.414Z,11.52
2018-01-14T23:05:59.418Z,12.23
2018-01-14T23:11:25.784Z,13.15
2018-01-14T23:13:56.526Z,12.27
2018-01-14T23:16:24.531Z,13.50
2018-01-14T23:18:53.294Z,13.27
2018-01-14T23:21:23.262Z,13.00
2018-01-14T23:23:52.250Z,13.70
2018-01-14T23:26:32.691Z,12.85
2018-01-14T23:29:27.982Z,14.23
2018-01-14T23:31:56.030Z,13.73
2018-01-14T23:34:34.582Z,13.55
2018-01-14T23:37:05.750Z,14.15
2018-01-14T23:39:34.814Z,13.73
2018-01-14T23:42:02.918Z,12.73
2018-01-14T23:44:30.966Z,14.52
2018-01-14T23:47:05.594Z,13.90
2018-01-14T23:49:34.602Z,12.73
2018-01-14T23:52:03.625Z,13.13
2018-01-14T23:54:34.354Z,13.88
2018-01-14T23:57:07.990Z,13.85
2018-01-14T23:59:40.630Z,14.27
